Time;durP1;ratioP1;P1;durP2;ratioP2;P2;SDS_P1;SDS_P2;PMS_P1;PMS_P2;Temp;Humidity;BMP_temperature;BMP_pressure;BME280_temperature;BME280_humidity;BME280_pressure;Samples;Min_cycle;Max_cycle;Signal;HPM_P1;HPM_P2
2023/12/18 00:06:26;;;;;;;;;;;;;;;4.00;67.69;101406.75;4344156;32;33803;-91
2023/12/18 00:08:55;;;;;;;;;;;;;;;4.10;67.30;101421.72;4375295;32;35246;-90
2023/12/18 00:11:59;;;;;;;;;;;;;;;4.05;67.14;101418.97;4370538;32;33460;-93
2023/12/18 00:14:53;;;;;;;;;;;;;;;4.16;67.21;101415.97;4355214;32;32798;-91
2023/12/18 00:17:39;;;;;;;;;;;;;;;4.08;67.37;101423.34;4353287;32;35232;-94
2023/12/18 00:20:33;;;;;;;;;;;;;;;4.03;67.45;101414.56;4367169;32;33711;-92
2023/12/18 00:23:07;;;;;;;;;;;;;;;3.92;67.87;101419.28;4354020;32;36061;-91
2023/12/18 00:25:42;;;;;;;;;;;;;;;3.89;67.83;101426.87;4356135;32;34124;-93
2023/12/18 00:28:11;;;;;;;;;;;;;;;3.99;67.50;101423.00;4372593;32;33244;-91
2023/12/18 00:30:51;;;;;;;;;;;;;;;3.99;67.16;101415.28;4343793;32;33957;-93
2023/12/18 00:33:26;;;;;;;;;;;;;;;3.77;67.59;101422.09;4351746;32;32440;-91
2023/12/18 00:35:56;;;;;;;;;;;;;;;3.77;67.75;101421.19;4367831;32;34213;-92
2023/12/18 00:38:27;;;;;;;;;;;;;;;3.56;68.35;101426.31;4361090;32;34312;-91
2023/12/18 00:40:56;;;;;;;;;;;;;;;3.68;68.22;101420.81;4357528;32;34973;-90
2023/12/18 00:43:27;;;;;;;;;;;;;;;3.54;68.51;101409.97;4349579;32;34183;-94
2023/12/18 00:45:56;;;;;;;;;;;;;;;3.86;67.71;101408.75;4362558;32;33768;-92
2023/12/18 00:52:20;;;;;;;;;;;;;;;4.08;67.43;101400.22;4347196;32;34640;-91
2023/12/18 00:54:53;;;;;;;;;;;;;;;3.97;67.75;101402.38;4372227;32;34132;-93
2023/12/18 00:57:27;;;;;;;;;;;;;;;3.79;68.22;101392.22;4374650;32;35212;-92
2023/12/18 00:59:58;;;;;;;;;;;;;;;3.81;68.37;101393.16;4368703;32;33362;-89
2023/12/18 01:02:32;;;;;;;;;;;;;;;4.11;67.47;101402.03;4356180;32;35146;-89
2023/12/18 01:07:48;;;;;;;;;;;;;;;4.00;67.92;101402.47;4352125;32;35496;-91
2023/12/18 01:10:19;;;;;;;;;;;;;;;3.97;67.58;101401.50;4370259;32;32758;-91
2023/12/18 01:12:48;;;;;;;;;;;;;;;3.91;68.03;101396.97;4360645;32;35029;-91
2023/12/18 01:15:17;;;;;;;;;;;;;;;3.81;68.23;101405.97;4350224;32;34623;-91
2023/12/18 01:17:49;;;;;;;;;;;;;;;3.76;68.71;101399.78;4363383;32;33497;-90
2023/12/18 01:20:19;;;;;;;;;;;;;;;3.78;68.72;101400.72;4365653;32;32822;-91
2023/12/18 01:22:53;;;;;;;;;;;;;;;3.91;68.57;101401.22;4356687;32;32813;-90
2023/12/18 01:25:33;;;;;;;;;;;;;;;4.11;67.45;101400.38;4365107;32;34344;-90
2023/12/18 01:28:02;;;;;;;;;;;;;;;4.00;67.68;101394.78;4358953;32;33975;-89
2023/12/18 01:30:32;;;;;;;;;;;;;;;4.01;67.76;101398.22;4359427;32;32893;-91
2023/12/18 01:33:02;;;;;;;;;;;;;;;4.07;67.72;101396.78;4369421;32;33817;-90
2023/12/18 01:35:38;;;;;;;;;;;;;;;3.88;68.77;101401.12;4374447;32;34656;-90
2023/12/18 01:38:09;;;;;;;;;;;;;;;3.95;68.51;101403.13;4356507;32;33940;-93
2023/12/18 01:40:37;;;;;;;;;;;;;;;3.87;68.93;101401.91;4364239;32;32761;-91
2023/12/18 01:43:21;;;;;;;;;;;;;;;4.10;68.12;101395.16;4376955;32;34052;-89
2023/12/18 01:45:49;;;;;;;;;;;;;;;4.20;67.29;101387.00;4366251;32;34294;-92
2023/12/18 01:48:18;;;;;;;;;;;;;;;3.90;68.36;101382.37;4361444;32;34144;-90
2023/12/18 01:50:49;;;;;;;;;;;;;;;3.95;68.04;101380.00;4360206;32;32910;-92
2023/12/18 01:53:19;;;;;;;;;;;;;;;3.83;68.75;101386.37;4360882;32;33782;-90
2023/12/18 01:55:51;;;;;;;;;;;;;;;3.93;68.19;101382.50;4359383;32;34451;-90
2023/12/18 01:58:20;;;;;;;;;;;;;;;3.85;68.36;101384.75;4374985;32;34154;-90
2023/12/18 02:00:55;;;;;;;;;;;;;;;3.75;68.81;101381.78;4360918;32;33426;-90
2023/12/18 02:03:24;;;;;;;;;;;;;;;4.02;67.84;101376.88;4387042;32;33734;-91
2023/12/18 02:05:53;;;;;;;;;;;;;;;3.96;67.71;101379.19;4367307;32;33042;-90
2023/12/18 02:08:28;;;;;;;;;;;;;;;4.03;67.83;101370.91;4370921;32;34307;-91
2023/12/18 02:10:58;;;;;;;;;;;;;;;4.01;67.67;101372.53;4375384;32;33238;-92
2023/12/18 02:13:28;;;;;;;;;;;;;;;3.78;68.54;101372.50;4368929;32;34206;-89
2023/12/18 02:15:56;;;;;;;;;;;;;;;3.84;68.35;101377.00;4368623;32;34027;-90
2023/12/18 02:18:26;;;;;;;;;;;;;;;3.79;68.64;101371.69;4371070;32;34425;-90
2023/12/18 02:20:56;;;;;;;;;;;;;;;3.90;68.04;101366.97;4373703;32;32670;-91
2023/12/18 02:23:37;;;;;;;;;;;;;;;3.96;67.88;101366.34;4371581;32;33598;-93
2023/12/18 02:26:05;;;;;;;;;;;;;;;3.88;68.33;101362.59;4367251;32;34221;-91
2023/12/18 02:28:40;;;;;;;;;;;;;;;3.71;68.51;101361.91;4368272;32;35034;-90
2023/12/18 02:31:09;;;;;;;;;;;;;;;4.10;68.31;101362.66;4366777;32;33274;-88
2023/12/18 02:33:41;;;;;;;;;;;;;;;4.10;68.06;101359.22;4366226;32;33664;-91
2023/12/18 02:36:10;;;;;;;;;;;;;;;4.09;68.01;101355.75;4368427;32;33931;-91
2023/12/18 02:38:47;;;;;;;;;;;;;;;4.14;68.18;101354.25;4365060;32;32124;-92
2023/12/18 02:41:16;;;;;;;;;;;;;;;4.20;67.90;101354.47;4354269;32;32392;-89
2023/12/18 02:43:44;;;;;;;;;;;;;;;4.20;68.19;101351.91;4366499;32;33654;-91
2023/12/18 02:46:16;;;;;;;;;;;;;;;4.15;68.45;101347.41;4372693;32;34718;-92
2023/12/18 02:48:44;;;;;;;;;;;;;;;4.24;67.80;101338.37;4368594;32;35056;-89
2023/12/18 02:51:13;;;;;;;;;;;;;;;4.17;67.99;101336.38;4367987;32;33025;-88
2023/12/18 02:53:51;;;;;;;;;;;;;;;4.23;67.66;101352.06;4366110;32;33582;-92
2023/12/18 02:56:20;;;;;;;;;;;;;;;4.28;67.72;101352.22;4358987;32;32505;-90
2023/12/18 02:58:49;;;;;;;;;;;;;;;4.39;67.28;101350.94;4349485;32;33976;-90
2023/12/18 03:01:20;;;;;;;;;;;;;;;4.37;67.04;101355.13;4359899;32;32707;-90
2023/12/18 03:03:49;;;;;;;;;;;;;;;4.16;67.83;101355.19;4366535;32;33226;-90
2023/12/18 03:06:31;;;;;;;;;;;;;;;4.10;68.31;101351.50;4367541;32;34534;-90
2023/12/18 03:09:01;;;;;;;;;;;;;;;4.25;67.33;101349.53;4373199;32;34619;-90
2023/12/18 03:11:34;;;;;;;;;;;;;;;4.40;66.99;101362.13;4365637;32;32857;-90
2023/12/18 03:14:04;;;;;;;;;;;;;;;4.18;67.57;101360.38;4367974;32;34376;-90
2023/12/18 03:16:34;;;;;;;;;;;;;;;4.21;67.59;101357.94;4365984;32;33876;-92
2023/12/18 03:19:06;;;;;;;;;;;;;;;4.13;67.74;101355.09;4368396;32;33754;-89
2023/12/18 03:21:35;;;;;;;;;;;;;;;4.28;66.96;101352.22;4370807;32;33017;-92
2023/12/18 03:24:10;;;;;;;;;;;;;;;4.14;67.50;101345.69;4373905;32;34453;-92
2023/12/18 03:26:38;;;;;;;;;;;;;;;4.05;67.77;101351.31;4370262;32;34833;-91
2023/12/18 03:31:57;;;;;;;;;;;;;;;3.82;68.20;101347.84;4366342;32;31115;-90
2023/12/18 03:34:26;;;;;;;;;;;;;;;3.84;68.47;101347.09;4360759;32;32236;-89
2023/12/18 03:36:54;;;;;;;;;;;;;;;3.85;68.18;101351.38;4359390;32;33745;-90
2023/12/18 03:39:25;;;;;;;;;;;;;;;3.50;68.88;101361.88;4365356;32;35074;-92
2023/12/18 03:41:57;;;;;;;;;;;;;;;3.75;68.40;101351.84;4365908;32;33035;-89
2023/12/18 03:44:26;;;;;;;;;;;;;;;3.74;68.22;101349.19;4370798;32;33337;-89
2023/12/18 03:46:55;;;;;;;;;;;;;;;3.83;67.44;101347.00;4361988;32;33448;-90
2023/12/18 03:49:27;;;;;;;;;;;;;;;3.84;67.03;101341.03;4368363;32;34325;-90
2023/12/18 03:51:56;;;;;;;;;;;;;;;3.62;67.72;101337.63;4362412;32;32973;-90
2023/12/18 03:54:32;;;;;;;;;;;;;;;3.73;66.76;101337.19;4371545;32;33493;-90
2023/12/18 03:57:26;;;;;;;;;;;;;;;3.64;66.90;101328.28;4384176;32;34266;-92
2023/12/18 03:59:57;;;;;;;;;;;;;;;3.69;66.54;101327.59;4343195;32;33273;-90
2023/12/18 04:02:27;;;;;;;;;;;;;;;3.72;66.37;101325.16;4367484;32;33345;-91
2023/12/18 04:04:56;;;;;;;;;;;;;;;3.58;66.49;101322.03;4371723;32;33176;-90
2023/12/18 04:07:27;;;;;;;;;;;;;;;3.40;67.21;101328.13;4364495;32;34632;-91
2023/12/18 04:09:56;;;;;;;;;;;;;;;3.41;66.65;101334.16;4374349;32;32556;-91
2023/12/18 04:12:26;;;;;;;;;;;;;;;3.42;67.00;101339.34;4368667;32;34063;-89
2023/12/18 04:15:14;;;;;;;;;;;;;;;3.60;66.41;101341.81;4369700;32;34143;-89
2023/12/18 04:17:45;;;;;;;;;;;;;;;3.40;66.69;101332.37;4373785;32;33057;-92
2023/12/18 04:20:24;;;;;;;;;;;;;;;3.45;66.45;101335.16;4365026;32;33478;-92
2023/12/18 04:22:53;;;;;;;;;;;;;;;3.24;67.01;101325.75;4373486;32;33288;-90
2023/12/18 04:25:24;;;;;;;;;;;;;;;3.31;66.50;101330.34;4372738;32;33364;-89
2023/12/18 04:27:55;;;;;;;;;;;;;;;3.38;66.19;101326.31;4369912;32;33440;-91
2023/12/18 04:30:24;;;;;;;;;;;;;;;3.30;66.16;101325.13;4367295;32;34008;-90
2023/12/18 04:32:54;;;;;;;;;;;;;;;3.23;66.57;101313.72;4369440;32;33214;-89
2023/12/18 04:35:25;;;;;;;;;;;;;;;3.10;66.77;101317.47;4376040;32;33462;-89
2023/12/18 04:37:54;;;;;;;;;;;;;;;3.14;66.33;101306.53;4370019;32;33782;-91
2023/12/18 04:40:27;;;;;;;;;;;;;;;3.11;66.45;101314.06;4367215;32;33692;-89
2023/12/18 04:42:56;;;;;;;;;;;;;;;3.13;66.86;101314.16;4369700;32;33574;-90
2023/12/18 04:45:28;;;;;;;;;;;;;;;2.99;67.48;101318.66;4370487;32;34682;-91
2023/12/18 04:47:57;;;;;;;;;;;;;;;2.92;67.58;101325.25;4367278;32;34237;-88
2023/12/18 04:50:30;;;;;;;;;;;;;;;3.09;67.29;101320.81;4363720;32;33664;-89
2023/12/18 04:53:04;;;;;;;;;;;;;;;3.01;67.43;101321.31;4372811;32;32778;-90
2023/12/18 04:55:34;;;;;;;;;;;;;;;3.08;67.04;101318.22;4379064;32;33585;-92
2023/12/18 04:58:06;;;;;;;;;;;;;;;3.02;67.95;101307.66;4375996;32;35001;-89
2023/12/18 05:00:34;;;;;;;;;;;;;;;3.11;67.52;101316.62;4365464;32;34196;-92
2023/12/18 05:03:04;;;;;;;;;;;;;;;2.97;67.99;101313.50;4366860;32;33478;-88
2023/12/18 05:05:33;;;;;;;;;;;;;;;3.06;67.63;101307.00;4369490;32;34336;-89
2023/12/18 05:08:02;;;;;;;;;;;;;;;3.08;67.66;101315.63;4375195;32;34226;-89
2023/12/18 05:10:32;;;;;;;;;;;;;;;2.96;67.82;101315.97;4369653;32;33691;-90
2023/12/18 05:13:08;;;;;;;;;;;;;;;2.95;68.15;101332.19;4371149;32;34532;-90
2023/12/18 05:15:37;;;;;;;;;;;;;;;3.18;67.55;101322.91;4367435;32;34540;-91
2023/12/18 05:18:12;;;;;;;;;;;;;;;3.06;67.42;101319.81;4369123;32;34078;-89
2023/12/18 05:20:41;;;;;;;;;;;;;;;2.95;68.06;101329.63;4373906;32;33763;-89
2023/12/18 05:23:10;;;;;;;;;;;;;;;2.64;68.47;101317.12;4370319;32;32960;-88
2023/12/18 05:25:39;;;;;;;;;;;;;;;2.77;68.22;101314.28;4369339;32;34594;-89
2023/12/18 05:28:09;;;;;;;;;;;;;;;2.70;68.04;101319.94;4361416;32;34888;-90
2023/12/18 05:30:39;;;;;;;;;;;;;;;2.68;68.71;101319.91;4374064;32;34649;-90
2023/12/18 05:33:10;;;;;;;;;;;;;;;2.75;68.71;101313.34;4370961;32;32751;-89
2023/12/18 05:35:40;;;;;;;;;;;;;;;2.73;68.57;101320.06;4362207;32;33110;-91
2023/12/18 05:38:09;;;;;;;;;;;;;;;2.75;68.21;101315.91;4359778;32;34343;-89
2023/12/18 05:40:44;;;;;;;;;;;;;;;2.83;68.36;101314.56;4368367;32;34087;-91
2023/12/18 05:43:19;;;;;;;;;;;;;;;2.87;68.26;101316.44;4352729;32;34247;-88
2023/12/18 05:45:50;;;;;;;;;;;;;;;2.90;68.18;101314.03;4359158;32;35133;-89
2023/12/18 05:48:26;;;;;;;;;;;;;;;2.98;67.87;101319.50;4365435;32;34687;-91
2023/12/18 05:53:55;;;;;;;;;;;;;;;2.81;68.85;101318.75;4297766;33;34761;-89
2023/12/18 05:56:24;;;;;;;;;;;;;;;2.86;68.54;101319.81;4309850;33;34631;-89
2023/12/18 05:58:55;;;;;;;;;;;;;;;2.91;68.65;101318.34;4296182;33;35586;-88
2023/12/18 06:01:29;;;;;;;;;;;;;;;3.04;67.71;101319.75;4305959;33;35397;-89
2023/12/18 06:04:09;;;;;;;;;;;;;;;3.08;67.52;101320.78;4309984;33;33085;-88
2023/12/18 06:06:38;;;;;;;;;;;;;;;3.02;67.71;101321.37;4308145;33;34210;-88
2023/12/18 06:09:09;;;;;;;;;;;;;;;2.89;67.94;101326.78;4313026;33;34176;-90
2023/12/18 06:11:38;;;;;;;;;;;;;;;2.91;67.92;101328.59;4296121;33;36016;-88
2023/12/18 06:14:09;;;;;;;;;;;;;;;2.78;68.07;101327.19;4297990;33;34135;-89
2023/12/18 06:16:39;;;;;;;;;;;;;;;2.76;68.38;101317.66;4296751;33;33877;-90
2023/12/18 06:19:12;;;;;;;;;;;;;;;2.68;68.48;101319.91;4308060;33;35024;-89
2023/12/18 06:21:41;;;;;;;;;;;;;;;2.75;68.15;101324.50;4308607;33;33213;-89
2023/12/18 06:24:11;;;;;;;;;;;;;;;2.84;67.74;101324.00;4325591;32;33717;-89
2023/12/18 06:26:40;;;;;;;;;;;;;;;2.80;68.09;101322.09;4374896;32;33459;-88
2023/12/18 06:29:09;;;;;;;;;;;;;;;2.71;68.36;101321.72;4370045;32;33881;-87
2023/12/18 06:31:39;;;;;;;;;;;;;;;2.92;68.04;101324.34;4366888;32;33957;-87
2023/12/18 06:34:10;;;;;;;;;;;;;;;2.95;67.95;101330.50;4362585;32;33887;-89
2023/12/18 06:36:44;;;;;;;;;;;;;;;2.86;68.35;101329.22;4358945;32;33412;-87
2023/12/18 06:39:13;;;;;;;;;;;;;;;2.93;68.02;101333.81;4369580;32;36393;-88
2023/12/18 06:41:44;;;;;;;;;;;;;;;2.88;68.50;101336.16;4369944;32;32822;-87
2023/12/18 06:44:12;;;;;;;;;;;;;;;2.73;68.75;101344.03;4373773;32;32983;-88
2023/12/18 06:46:48;;;;;;;;;;;;;;;2.87;68.66;101343.75;4367695;32;33784;-89
2023/12/18 06:49:17;;;;;;;;;;;;;;;2.73;69.41;101345.69;4362036;32;33925;-87
2023/12/18 06:51:50;;;;;;;;;;;;;;;2.91;69.21;101345.66;4368743;32;34490;-88
2023/12/18 06:54:19;;;;;;;;;;;;;;;3.09;68.29;101337.91;4369411;32;33061;-87
2023/12/18 06:56:53;;;;;;;;;;;;;;;3.05;68.47;101344.59;4366047;32;33454;-89
2023/12/18 06:59:23;;;;;;;;;;;;;;;2.98;68.25;101338.31;4364204;32;33537;-87
2023/12/18 07:01:53;;;;;;;;;;;;;;;2.91;68.82;101345.66;4368789;32;34627;-90
2023/12/18 07:04:27;;;;;;;;;;;;;;;2.92;69.22;101350.88;4370503;32;33742;-87
2023/12/18 07:06:55;;;;;;;;;;;;;;;2.99;68.98;101357.12;4373526;32;33890;-88
2023/12/18 07:09:27;;;;;;;;;;;;;;;3.03;68.92;101356.47;4368852;32;34136;-89
2023/12/18 07:11:56;;;;;;;;;;;;;;;2.81;69.59;101357.19;4376275;32;33819;-87
2023/12/18 07:14:28;;;;;;;;;;;;;;;2.82;70.24;101353.81;4384575;32;33747;-87
2023/12/18 07:16:59;;;;;;;;;;;;;;;2.96;69.27;101350.19;4385469;32;34050;-89
2023/12/18 07:19:28;;;;;;;;;;;;;;;3.04;69.45;101358.19;4391487;32;34041;-88
2023/12/18 07:21:58;;;;;;;;;;;;;;;3.22;68.73;101357.28;4368934;32;33846;-90
2023/12/18 07:24:28;;;;;;;;;;;;;;;3.16;68.78;101353.59;4367808;32;33001;-86
2023/12/18 07:26:58;;;;;;;;;;;;;;;3.15;68.82;101362.13;4363829;32;34898;-89
2023/12/18 07:29:26;;;;;;;;;;;;;;;3.21;68.81;101358.94;4376890;32;34389;-88
2023/12/18 07:31:56;;;;;;;;;;;;;;;3.09;68.80;101359.28;4372154;32;34471;-86
2023/12/18 07:34:26;;;;;;;;;;;;;;;2.61;71.21;101374.25;4367858;32;33838;-89
2023/12/18 07:36:58;;;;;;;;;;;;;;;2.48;71.70;101369.34;4366092;32;34811;-89
2023/12/18 07:39:27;;;;;;;;;;;;;;;2.42;72.24;101358.81;4362355;32;35445;-87
2023/12/18 07:41:59;;;;;;;;;;;;;;;2.59;71.41;101365.59;4367893;32;33405;-89
2023/12/18 07:44:27;;;;;;;;;;;;;;;2.49;72.05;101363.41;4365633;32;33069;-89
2023/12/18 07:46:57;;;;;;;;;;;;;;;2.74;72.05;101358.59;4373973;32;33600;-87
2023/12/18 07:49:26;;;;;;;;;;;;;;;2.60;72.02;101356.22;4362680;32;33565;-87
2023/12/18 07:51:55;;;;;;;;;;;;;;;2.70;72.62;101356.69;4370303;32;33765;-86
2023/12/18 07:54:25;;;;;;;;;;;;;;;3.01;71.45;101357.22;4364300;32;33363;-87
2023/12/18 07:56:58;;;;;;;;;;;;;;;3.34;69.98;101357.81;4366357;32;33653;-87
2023/12/18 07:59:27;;;;;;;;;;;;;;;3.29;70.36;101352.47;4359863;32;33947;-86
2023/12/18 08:01:57;;;;;;;;;;;;;;;3.15;71.41;101357.00;4350230;32;32891;-87
2023/12/18 08:04:29;;;;;;;;;;;;;;;3.39;70.42;101361.44;4372176;32;33854;-86
2023/12/18 08:07:00;;;;;;;;;;;;;;;3.51;69.96;101364.53;4368059;32;34189;-86
2023/12/18 08:09:29;;;;;;;;;;;;;;;3.48;70.20;101363.50;4371830;32;33626;-87
2023/12/18 08:11:58;;;;;;;;;;;;;;;3.37;70.20;101363.94;4369534;32;34234;-86
2023/12/18 08:14:29;;;;;;;;;;;;;;;3.73;69.09;101357.72;4368185;32;32523;-86
2023/12/18 08:16:58;;;;;;;;;;;;;;;3.57;69.90;101351.06;4363959;32;33424;-89
2023/12/18 08:19:29;;;;;;;;;;;;;;;3.63;69.36;101343.62;4365883;32;34335;-85
2023/12/18 08:21:57;;;;;;;;;;;;;;;3.78;68.94;101341.69;4365864;32;33049;-85
2023/12/18 08:24:34;;;;;;;;;;;;;;;3.77;69.26;101333.91;4366155;32;33555;-85
2023/12/18 08:27:03;;;;;;;;;;;;;;;3.82;69.59;101345.28;4369297;32;33306;-86
2023/12/18 08:29:35;;;;;;;;;;;;;;;3.85;69.75;101342.81;4366233;32;33857;-85
2023/12/18 08:32:10;;;;;;;;;;;;;;;3.79;70.04;101335.75;4366569;32;33423;-86
2023/12/18 08:34:40;;;;;;;;;;;;;;;3.73;70.37;101340.62;4364979;32;33827;-84
2023/12/18 08:37:12;;;;;;;;;;;;;;;4.17;69.09;101336.38;4368830;32;35015;-86
2023/12/18 08:39:40;;;;;;;;;;;;;;;4.04;69.93;101334.16;4369017;32;35002;-86
2023/12/18 08:42:12;;;;;;;;;;;;;;;4.19;69.45;101341.59;4361426;32;34126;-87
2023/12/18 08:44:40;;;;;;;;;;;;;;;4.48;68.56;101341.00;4356907;32;31675;-86
2023/12/18 08:47:09;;;;;;;;;;;;;;;4.57;68.10;101345.63;4360740;32;34273;-85
2023/12/18 08:49:39;;;;;;;;;;;;;;;4.54;68.31;101339.50;4384020;32;33546;-86
2023/12/18 08:52:17;;;;;;;;;;;;;;;4.77;67.41;101330.94;4361539;32;33659;-87
2023/12/18 08:54:45;;;;;;;;;;;;;;;4.45;68.92;101333.19;4365037;32;33398;-87
2023/12/18 08:57:16;;;;;;;;;;;;;;;4.49;68.92;101335.06;4348489;32;34458;-86
2023/12/18 08:59:44;;;;;;;;;;;;;;;4.04;70.99;101337.59;4363044;32;33767;-89
2023/12/18 09:02:14;;;;;;;;;;;;;;;4.07;71.49;101342.84;4365759;32;34849;-86
2023/12/18 09:04:47;;;;;;;;;;;;;;;4.15;71.41;101345.72;4368592;32;31418;-87
2023/12/18 09:07:19;;;;;;;;;;;;;;;3.97;72.96;101345.87;4364518;32;34718;-86
2023/12/18 09:09:47;;;;;;;;;;;;;;;4.13;72.00;101342.25;4361752;32;35526;-88
2023/12/18 09:12:16;;;;;;;;;;;;;;;3.77;73.66;101347.66;4358000;32;32950;-88
2023/12/18 09:14:45;;;;;;;;;;;;;;;4.39;71.35;101347.50;4364329;32;33150;-86
2023/12/18 09:17:13;;;;;;;;;;;;;;;4.25;71.45;101352.09;4365686;32;33450;-88
2023/12/18 09:19:51;;;;;;;;;;;;;;;4.26;72.20;101347.03;4363694;32;34187;-86
2023/12/18 09:22:21;;;;;;;;;;;;;;;4.77;69.48;101341.22;4352459;32;32878;-89
2023/12/18 09:24:52;;;;;;;;;;;;;;;4.78;69.71;101340.41;4360896;32;33162;-89
2023/12/18 09:27:25;;;;;;;;;;;;;;;4.78;69.69;101340.41;4365163;32;33891;-87
2023/12/18 09:29:53;;;;;;;;;;;;;;;4.80;69.32;101335.31;4363586;32;34164;-87
2023/12/18 09:32:27;;;;;;;;;;;;;;;4.88;69.39;101329.66;4363800;32;33939;-85
2023/12/18 09:34:57;;;;;;;;;;;;;;;5.01;69.22;101330.09;4366843;32;33679;-86
2023/12/18 09:37:28;;;;;;;;;;;;;;;5.23;68.13;101319.72;4353702;32;33751;-86
2023/12/18 09:39:56;;;;;;;;;;;;;;;4.34;72.36;101321.63;4369104;32;34280;-86
2023/12/18 09:42:28;;;;;;;;;;;;;;;4.80;70.35;101322.47;4373863;32;33120;-86
2023/12/18 09:44:57;;;;;;;;;;;;;;;5.31;68.18;101313.12;4357777;32;32932;-90
2023/12/18 09:47:28;;;;;;;;;;;;;;;5.15;68.87;101308.31;4367883;32;33552;-86
2023/12/18 09:49:59;;;;;;;;;;;;;;;4.95;69.66;101307.59;4365631;32;34256;-87
2023/12/18 09:52:34;;;;;;;;;;;;;;;5.19;68.98;101306.69;4366216;32;34348;-87
2023/12/18 09:55:04;;;;;;;;;;;;;;;5.23;68.85;101303.41;4358280;32;33509;-86
2023/12/18 09:57:38;;;;;;;;;;;;;;;5.23;69.14;101303.41;4368811;32;33778;-87
2023/12/18 10:00:12;;;;;;;;;;;;;;;5.30;68.84;101297.66;4369844;32;35182;-89
2023/12/18 10:02:43;;;;;;;;;;;;;;;5.15;69.34;101290.31;4368159;32;33473;-85
2023/12/18 10:05:15;;;;;;;;;;;;;;;5.48;68.02;101292.25;4378918;32;34063;-87
2023/12/18 10:07:45;;;;;;;;;;;;;;;5.41;68.53;101288.59;4374937;32;34272;-90
2023/12/18 10:10:14;;;;;;;;;;;;;;;5.54;67.98;101297.59;4366404;32;33663;-87
2023/12/18 10:12:55;;;;;;;;;;;;;;;5.46;68.51;101293.88;4366527;32;34359;-88
2023/12/18 10:15:26;;;;;;;;;;;;;;;5.52;68.41;101287.25;4370753;32;34259;-87
2023/12/18 10:17:58;;;;;;;;;;;;;;;5.73;68.00;101276.78;4370812;32;33924;-86
2023/12/18 10:20:29;;;;;;;;;;;;;;;5.66;68.28;101274.84;4370868;32;33905;-90
2023/12/18 10:23:04;;;;;;;;;;;;;;;5.63;69.10;101271.28;4361764;32;35072;-87
2023/12/18 10:25:33;;;;;;;;;;;;;;;5.88;68.09;101268.66;4370427;32;33019;-88
2023/12/18 10:28:04;;;;;;;;;;;;;;;5.83;68.84;101277.09;4370840;32;34021;-88
2023/12/18 10:30:32;;;;;;;;;;;;;;;5.85;69.04;101278.88;4356919;32;34339;-88
2023/12/18 10:33:09;;;;;;;;;;;;;;;6.17;68.24;101277.31;4374671;32;34463;-88
2023/12/18 10:35:48;;;;;;;;;;;;;;;5.88;69.85;101273.81;4359625;32;34037;-87
2023/12/18 10:38:19;;;;;;;;;;;;;;;6.25;68.46;101271.50;4385331;32;33359;-89
2023/12/18 10:40:50;;;;;;;;;;;;;;;6.37;67.77;101267.59;4384400;32;34104;-87
2023/12/18 10:43:20;;;;;;;;;;;;;;;6.44;67.51;101260.91;4382841;32;34250;-90
2023/12/18 10:45:53;;;;;;;;;;;;;;;6.28;67.90;101266.44;4369251;32;33365;-89
2023/12/18 10:48:22;;;;;;;;;;;;;;;6.34;67.89;101264.94;4371805;32;33605;-88
2023/12/18 10:50:55;;;;;;;;;;;;;;;6.41;67.75;101258.25;4363364;32;33866;-89
2023/12/18 10:53:24;;;;;;;;;;;;;;;6.47;67.48;101257.53;4361109;32;33773;-88
2023/12/18 10:55:54;;;;;;;;;;;;;;;6.25;68.83;101249.19;4372146;32;32809;-89
2023/12/18 10:58:23;;;;;;;;;;;;;;;6.36;68.34;101247.81;4361362;32;34492;-88
2023/12/18 11:01:09;;;;;;;;;;;;;;;6.61;67.45;101241.62;4371642;32;36305;-91
2023/12/18 11:03:45;;;;;;;;;;;;;;;6.75;67.11;101236.87;4352041;32;33965;-87
2023/12/18 11:09:01;;;;;;;;;;;;;;;6.76;68.18;101233.44;4371523;32;33156;-90
2023/12/18 11:11:30;;;;;;;;;;;;;;;7.09;64.36;101235.16;4365270;32;35437;-90
2023/12/18 11:14:07;;;;;;;;;;;;;;;7.29;63.42;101237.37;4358787;32;34127;-88
2023/12/18 11:16:38;;;;;;;;;;;;;;;7.37;62.56;101228.09;4372798;32;33461;-88
2023/12/18 11:19:14;;;;;;;;;;;;;;;7.79;60.38;101214.47;4371608;32;35481;-88
2023/12/18 11:21:57;;;;;;;;;;;;;;;7.77;60.99;101222.19;4373655;32;33852;-90
2023/12/18 11:24:35;;;;;;;;;;;;;;;8.05;59.66;101215.06;4376890;32;33665;-88
2023/12/18 11:27:06;;;;;;;;;;;;;;;8.07;59.16;101216.84;4366548;32;32996;-89
2023/12/18 11:29:42;;;;;;;;;;;;;;;8.05;59.51;101210.75;4343624;32;34418;-88
2023/12/18 11:32:43;;;;;;;;;;;;;;;8.43;57.69;101205.56;4344539;32;33132;-88
2023/12/18 11:35:26;;;;;;;;;;;;;;;8.27;58.39;101199.16;4353616;32;34472;-89
2023/12/18 11:45:38;;;;;;;;;;;;;;;8.65;57.06;101191.31;4308423;33;35312;-89
2023/12/18 11:48:35;;;;;;;;;;;;;;;8.79;56.51;101188.97;4316189;33;34641;-89
2023/12/18 11:51:24;;;;;;;;;;;;;;;8.80;56.48;101189.84;4325621;33;34160;-90
2023/12/18 11:54:18;;;;;;;;;;;;;;;9.09;55.76;101188.63;4307658;33;36117;-88
2023/12/18 12:55:37;;;;;;;;;;;;;;;9.34;55.52;101106.16;4437942;29;34984;-90
2023/12/18 12:58:10;;;;;;;;;;;;;;;9.58;55.25;101109.09;4224738;33;32443;-89
2023/12/18 13:00:42;;;;;;;;;;;;;;;9.54;54.65;101102.16;4227641;33;33106;-90
2023/12/18 13:03:13;;;;;;;;;;;;;;;9.54;54.55;101094.37;4222920;33;33846;-92
2023/12/18 13:05:45;;;;;;;;;;;;;;;9.56;54.76;101099.56;4236052;33;34463;-90
2023/12/18 13:08:14;;;;;;;;;;;;;;;9.71;54.07;101102.38;4242014;33;33554;-91
2023/12/18 13:10:45;;;;;;;;;;;;;;;9.91;53.82;101094.84;4229746;33;36022;-89
2023/12/18 13:13:14;;;;;;;;;;;;;;;9.82;53.92;101087.81;4238859;33;34886;-89
2023/12/18 13:15:47;;;;;;;;;;;;;;;9.93;53.67;101085.38;4236242;33;33577;-91
2023/12/18 13:18:17;;;;;;;;;;;;;;;9.87;53.71;101084.41;4259977;33;33548;-89
2023/12/18 13:20:50;;;;;;;;;;;;;;;9.88;53.47;101079.22;4295466;33;35046;-90
2023/12/18 13:23:19;;;;;;;;;;;;;;;9.89;53.52;101078.38;4297653;33;34249;-91
2023/12/18 13:25:51;;;;;;;;;;;;;;;9.87;53.97;101084.41;4337037;32;34131;-90
2023/12/18 13:28:27;;;;;;;;;;;;;;;9.86;53.56;101082.66;4365272;32;32329;-91
2023/12/18 13:30:58;;;;;;;;;;;;;;;9.82;53.68;101082.62;4378742;32;34561;-90
2023/12/18 13:33:34;;;;;;;;;;;;;;;9.82;53.84;101074.84;4379806;32;34446;-91
2023/12/18 13:36:04;;;;;;;;;;;;;;;9.55;54.78;101071.91;4390831;32;34007;-91
2023/12/18 13:38:35;;;;;;;;;;;;;;;10.00;53.46;101079.41;4375607;32;35272;-90
2023/12/18 13:41:06;;;;;;;;;;;;;;;10.08;52.87;101079.47;4365042;32;35139;-92
2023/12/18 13:43:40;;;;;;;;;;;;;;;9.75;53.99;101086.00;4378795;32;34631;-90
2023/12/18 13:46:10;;;;;;;;;;;;;;;10.01;53.38;101088.03;4398832;32;34661;-90
2023/12/18 13:48:47;;;;;;;;;;;;;;;10.17;52.95;101084.78;4360680;32;33684;-91
2023/12/18 13:54:25;;;;;;;;;;;;;;;9.89;54.08;101073.22;4357818;32;34780;-89
2023/12/18 13:56:55;;;;;;;;;;;;;;;9.95;53.87;101073.25;4369606;32;34217;-89
2023/12/18 13:59:25;;;;;;;;;;;;;;;9.74;54.44;101078.22;4369594;32;32776;-91
2023/12/18 14:01:54;;;;;;;;;;;;;;;9.88;54.15;101071.44;4360685;32;33404;-90
2023/12/18 14:04:27;;;;;;;;;;;;;;;9.83;54.64;101068.84;4369902;32;34241;-92
2023/12/18 14:06:56;;;;;;;;;;;;;;;9.66;55.20;101069.44;4370540;32;34773;-90
2023/12/18 14:13:21;;;;;;;;;;;;;;;9.48;55.97;101072.69;4341785;33;34502;-91
2023/12/18 14:22:39;;;;;;;;;;;;;;;9.11;58.97;101069.56;4250905;33;35538;-89
2023/12/18 14:25:09;;;;;;;;;;;;;;;9.29;59.41;101071.56;4295099;33;33203;-88
2023/12/18 14:27:38;;;;;;;;;;;;;;;9.14;59.83;101073.06;4286746;33;35111;-94
2023/12/18 14:30:08;;;;;;;;;;;;;;;9.11;60.08;101070.44;4293835;33;32973;-91
2023/12/18 14:32:41;;;;;;;;;;;;;;;8.86;60.62;101071.78;4282867;33;34263;-89
2023/12/18 14:35:10;;;;;;;;;;;;;;;8.89;60.77;101066.66;4294225;33;33774;-89
2023/12/18 14:37:42;;;;;;;;;;;;;;;8.61;61.38;101061.88;4298629;33;34618;-92
2023/12/18 14:40:12;;;;;;;;;;;;;;;8.46;61.95;101057.31;4294821;33;34867;-90
2023/12/18 14:42:43;;;;;;;;;;;;;;;8.38;62.05;101054.53;4294296;33;33419;-89
2023/12/18 14:45:12;;;;;;;;;;;;;;;8.34;62.17;101058.81;4294585;33;33240;-89
2023/12/18 14:47:45;;;;;;;;;;;;;;;8.36;62.11;101057.94;4277625;33;35342;-89
2023/12/18 14:50:15;;;;;;;;;;;;;;;8.33;62.21;101069.97;4314319;33;34245;-90